Time;durP1;ratioP1;P1;durP2;ratioP2;P2;SDS_P1;SDS_P2;PMS_P1;PMS_P2;Temp;Humidity;BMP_temperature;BMP_pressure;BME280_temperature;BME280_humidity;BME280_pressure;Samples;Min_cycle;Max_cycle;Signal;HPM_P1;HPM_P2
2023/12/11 00:00:20;;;;;;;5.22;0.70;;;;;;;9.38;77.32;97826.78;5004823;28;20715;-57
2023/12/11 00:02:47;;;;;;;4.55;0.70;;;;;;;9.38;77.28;97817.31;5004156;28;20049;-54
2023/12/11 00:05:14;;;;;;;4.57;1.30;;;;;;;9.41;77.26;97816.38;5002206;28;20045;-48
2023/12/11 00:07:41;;;;;;;10.45;0.90;;;;;;;9.39;76.98;97849.16;5003345;28;20592;-51
2023/12/11 00:10:08;;;;;;;1.02;0.68;;;;;;;9.36;77.63;97841.53;5001999;28;20081;-43
2023/12/11 00:12:36;;;;;;;2.15;0.55;;;;;;;9.45;78.05;97828.28;5004178;28;20046;-47
2023/12/11 00:15:03;;;;;;;3.70;0.52;;;;;;;9.39;77.00;97834.50;5002615;28;20411;-46
2023/12/11 00:17:30;;;;;;;4.53;0.57;;;;;;;9.40;76.85;97835.34;5004811;28;20049;-50
2023/12/11 00:19:57;;;;;;;4.63;0.90;;;;;;;9.34;76.79;97839.00;5005223;28;20103;-47
2023/12/11 00:22:24;;;;;;;3.70;0.70;;;;;;;9.44;76.98;97846.41;5007487;28;20058;-47
2023/12/11 00:24:51;;;;;;;3.05;0.68;;;;;;;9.41;76.79;97837.03;5002534;28;20054;-48
2023/12/11 00:27:18;;;;;;;3.53;0.60;;;;;;;9.40;76.27;97840.53;5005972;28;20057;-51
2023/12/11 00:29:45;;;;;;;2.40;0.60;;;;;;;9.45;76.78;97838.63;5006166;28;20042;-42
2023/12/11 00:32:12;;;;;;;4.85;0.63;;;;;;;9.49;76.10;97847.94;4999674;28;20042;-47
2023/12/11 00:34:38;;;;;;;3.08;0.77;;;;;;;9.52;76.37;97850.44;5005347;28;20054;-50
2023/12/11 00:37:05;;;;;;;1.70;0.50;;;;;;;9.52;75.77;97850.44;5002117;28;20807;-44
2023/12/11 00:39:32;;;;;;;4.85;0.70;;;;;;;9.45;75.42;97859.28;5003924;28;20473;-48
2023/12/11 00:41:59;;;;;;;3.75;0.73;;;;;;;9.52;75.42;97852.16;5002123;28;20041;-51
2023/12/11 00:44:25;;;;;;;4.78;0.60;;;;;;;9.49;75.75;97863.47;5005014;28;20383;-49
2023/12/11 00:46:52;;;;;;;4.07;1.10;;;;;;;9.49;75.68;97860.88;5005875;28;20084;-48
2023/12/11 00:49:19;;;;;;;3.20;0.90;;;;;;;9.41;76.43;97847.38;5006430;28;20041;-48
2023/12/11 00:51:48;;;;;;;2.33;0.32;;;;;;;9.48;75.86;97859.19;5005832;28;20133;-46
2023/12/11 00:54:15;;;;;;;2.95;0.55;;;;;;;9.42;75.65;97861.97;5007450;28;20418;-50
2023/12/11 00:56:42;;;;;;;2.65;0.47;;;;;;;9.50;76.15;97864.31;5006798;28;20797;-49
2023/12/11 00:59:09;;;;;;;0.93;0.35;;;;;;;9.57;76.41;97867.53;5006187;28;20050;-46
2023/12/11 01:01:35;;;;;;;2.15;0.60;;;;;;;9.52;76.13;97865.94;5007080;28;20054;-49
2023/12/11 01:04:02;;;;;;;1.27;0.60;;;;;;;9.49;76.08;97876.38;5005391;28;20050;-47
2023/12/11 01:06:29;;;;;;;3.33;0.60;;;;;;;9.53;76.38;97877.13;5007165;28;20082;-42
2023/12/11 01:08:56;;;;;;;4.18;0.70;;;;;;;9.42;75.83;97869.72;5017679;28;20049;-52
2023/12/11 01:11:23;;;;;;;2.60;0.82;;;;;;;9.44;76.22;97873.13;5007443;28;20045;-48
2023/12/11 01:13:49;;;;;;;3.05;0.90;;;;;;;9.38;75.76;97868.13;5009368;28;20049;-52
2023/12/11 01:16:16;;;;;;;3.88;0.30;;;;;;;9.47;75.45;97872.16;5005895;28;20052;-51
2023/12/11 01:18:43;;;;;;;3.40;1.05;;;;;;;9.38;76.21;97884.50;5007429;28;20076;-54
2023/12/11 01:21:09;;;;;;;2.42;1.55;;;;;;;9.43;75.79;97876.59;5006622;28;20054;-47
2023/12/11 01:23:36;;;;;;;4.43;0.90;;;;;;;9.49;75.78;97886.72;5008573;28;20049;-49
2023/12/11 01:26:03;;;;;;;2.22;0.52;;;;;;;9.50;75.43;97909.06;5008044;28;20100;-52
2023/12/11 01:28:30;;;;;;;4.60;0.22;;;;;;;9.50;75.69;97893.56;5009063;28;20119;-50
2023/12/11 01:30:57;;;;;;;2.35;0.43;;;;;;;9.44;75.86;97908.44;5008760;28;20046;-48
2023/12/11 01:33:24;;;;;;;2.35;0.73;;;;;;;9.47;75.40;97919.53;5005771;28;20047;-48
2023/12/11 01:35:51;;;;;;;2.75;0.95;;;;;;;9.46;75.27;97917.81;5006387;28;20045;-43
2023/12/11 01:38:18;;;;;;;3.15;0.75;;;;;;;9.46;75.10;97917.81;5005601;28;20042;-48
2023/12/11 01:40:44;;;;;;;2.45;0.60;;;;;;;9.48;75.42;97910.88;5004939;28;20054;-49
2023/12/11 01:46:00;;;;;;;3.38;0.70;;;;;;;9.47;75.19;97935.03;5057049;27;20405;-48
2023/12/11 01:48:28;;;;;;;3.38;0.70;;;;;;;9.49;75.57;97948.72;5014848;28;20050;-42
2023/12/11 01:50:55;;;;;;;1.95;0.73;;;;;;;9.36;74.99;97960.38;5007354;28;20061;-43
2023/12/11 01:53:22;;;;;;;1.25;0.47;;;;;;;9.48;75.20;97967.72;5007362;28;20042;-46
2023/12/11 01:55:49;;;;;;;2.90;0.70;;;;;;;9.47;74.60;97963.47;5001165;28;20057;-43
2023/12/11 01:58:17;;;;;;;3.30;0.70;;;;;;;9.39;74.69;97984.34;5001754;28;20053;-53
2023/12/11 02:00:44;;;;;;;4.55;1.58;;;;;;;9.46;74.89;97995.34;5006035;28;20077;-48
2023/12/11 02:03:11;;;;;;;3.53;1.88;;;;;;;9.46;74.35;98010.84;5003296;28;20667;-50
2023/12/11 02:05:38;;;;;;;2.42;0.68;;;;;;;9.45;75.04;98014.31;5005978;28;20132;-49
2023/12/11 02:08:05;;;;;;;4.53;1.70;;;;;;;9.41;74.77;98033.41;5010267;28;20406;-49
2023/12/11 02:10:31;;;;;;;2.60;0.90;;;;;;;9.33;74.70;98043.97;5004585;28;20076;-48
2023/12/11 02:12:58;;;;;;;2.85;1.15;;;;;;;9.39;74.50;98055.84;5006056;28;20049;-47
2023/12/11 02:15:42;;;;;;;1.30;0.60;;;;;;;9.39;74.47;98055.84;5003477;28;20104;-48
2023/12/11 02:18:10;;;;;;;1.80;0.90;;;;;;;9.41;74.74;98069.56;5004650;28;20514;-54
2023/12/11 02:20:39;;;;;;;3.30;0.73;;;;;;;9.41;74.01;98079.91;5005178;28;20504;-48
2023/12/11 02:23:13;;;;;;;3.65;0.68;;;;;;;9.44;74.04;98079.81;5002388;28;20050;-48
2023/12/11 02:25:43;;;;;;;5.78;0.65;;;;;;;9.52;74.36;98093.34;5005467;28;20054;-49
2023/12/11 02:28:10;;;;;;;1.90;0.65;;;;;;;9.51;74.46;98102.00;5003154;28;20058;-44
2023/12/11 02:30:48;;;;;;;1.00;0.60;;;;;;;9.51;74.56;98114.06;5001408;28;20137;-47
2023/12/11 02:33:14;;;;;;;1.45;0.40;;;;;;;9.49;73.95;98119.28;5011972;28;20131;-46
2023/12/11 02:35:43;;;;;;;1.60;0.55;;;;;;;9.52;74.16;98126.09;5007015;28;20097;-55
2023/12/11 02:38:10;;;;;;;5.05;0.90;;;;;;;9.57;74.38;98124.25;5009692;28;20085;-53
2023/12/11 02:40:37;;;;;;;3.00;0.85;;;;;;;9.51;74.29;98145.94;5014623;28;20056;-50
2023/12/11 02:43:04;;;;;;;2.33;0.63;;;;;;;9.50;74.26;98157.16;5008832;28;20056;-44
2023/12/11 02:45:31;;;;;;;5.20;0.75;;;;;;;9.52;73.82;98170.88;5002763;28;20046;-49
2023/12/11 02:48:02;;;;;;;3.55;0.90;;;;;;;9.50;74.12;98179.59;5007354;28;20099;-42
2023/12/11 02:50:30;;;;;;;2.45;0.50;;;;;;;9.53;74.25;98192.44;5007313;28;20558;-50
2023/12/11 02:52:58;;;;;;;2.47;0.60;;;;;;;9.51;74.22;98194.19;5022700;28;20160;-46
2023/12/11 02:55:25;;;;;;;2.15;0.93;;;;;;;9.53;74.08;98213.09;5004626;28;20054;-44
2023/12/11 02:57:58;;;;;;;2.45;0.70;;;;;;;9.48;73.54;98210.63;4993046;28;20537;-44
2023/12/11 03:00:25;;;;;;;6.32;1.70;;;;;;;9.47;74.23;98214.13;4984705;28;20537;-50
2023/12/11 03:02:52;;;;;;;2.13;0.68;;;;;;;9.47;74.19;98224.44;4985309;28;20057;-49
2023/12/11 03:05:19;;;;;;;2.03;0.45;;;;;;;9.49;74.06;98232.16;5000113;28;20070;-49
2023/12/11 03:07:46;;;;;;;1.48;0.70;;;;;;;9.45;73.92;98220.19;4981717;28;20042;-46
2023/12/11 03:10:13;;;;;;;2.25;0.45;;;;;;;9.45;73.84;98231.38;4989949;28;20057;-47
2023/12/11 03:12:40;;;;;;;3.05;1.00;;;;;;;9.47;74.18;98226.19;4991865;28;20081;-47
2023/12/11 03:15:09;;;;;;;2.55;0.85;;;;;;;9.43;74.12;98228.00;4990726;28;20049;-52
2023/12/11 03:17:36;;;;;;;2.05;1.45;;;;;;;9.44;74.30;98224.53;4991430;28;20053;-44
2023/12/11 03:20:05;;;;;;;3.58;0.70;;;;;;;9.39;74.70;98226.38;4984727;28;20514;-49
2023/12/11 03:22:32;;;;;;;2.30;0.65;;;;;;;9.35;74.64;98225.63;4992650;28;20046;-51
2023/12/11 03:24:59;;;;;;;2.63;1.02;;;;;;;9.32;73.70;98236.03;4992793;28;20201;-47
2023/12/11 03:27:25;;;;;;;7.82;0.90;;;;;;;9.23;74.97;98242.28;4996008;28;20046;-48
2023/12/11 03:29:53;;;;;;;3.38;0.52;;;;;;;9.20;74.39;98250.16;4990956;28;20054;-51
2023/12/11 03:32:19;;;;;;;3.40;0.77;;;;;;;9.19;74.42;98243.25;4988528;28;20046;-49
2023/12/11 03:34:46;;;;;;;1.13;0.77;;;;;;;9.14;74.36;98252.88;4992977;28;20048;-47
2023/12/11 03:37:13;;;;;;;2.13;0.43;;;;;;;9.09;74.95;98265.06;4990015;28;20050;-44
2023/12/11 03:39:41;;;;;;;6.43;0.93;;;;;;;9.10;74.56;98271.91;4986591;28;20058;-51
2023/12/11 03:42:09;;;;;;;4.03;1.02;;;;;;;9.07;75.00;98272.84;4991143;28;20484;-52
2023/12/11 03:44:36;;;;;;;3.20;0.52;;;;;;;9.03;75.13;98280.69;4988408;28;20077;-48
2023/12/11 03:47:03;;;;;;;4.15;0.80;;;;;;;9.06;74.84;98290.97;4991741;28;20538;-44
2023/12/11 03:49:29;;;;;;;4.22;0.70;;;;;;;9.08;75.02;98289.19;4990492;28;20080;-53
2023/12/11 03:51:56;;;;;;;3.20;0.45;;;;;;;9.06;75.58;98297.00;4992082;28;20101;-47
2023/12/11 03:54:23;;;;;;;2.75;0.98;;;;;;;9.08;74.73;98294.34;4996088;28;20141;-48
2023/12/11 03:56:50;;;;;;;2.08;0.80;;;;;;;9.10;74.79;98297.75;4989121;28;20073;-54
2023/12/11 03:59:16;;;;;;;1.85;0.95;;;;;;;9.08;74.85;98299.50;4992450;28;20038;-54
2023/12/11 04:01:43;;;;;;;3.08;0.70;;;;;;;9.11;74.75;98309.78;4983692;28;20053;-48
2023/12/11 04:04:10;;;;;;;2.67;0.70;;;;;;;9.07;75.47;98314.19;4992329;28;20037;-44
2023/12/11 04:06:37;;;;;;;3.05;0.65;;;;;;;9.05;75.72;98315.94;4985755;28;20054;-50
2023/12/11 04:09:04;;;;;;;6.80;0.70;;;;;;;8.99;75.23;98316.94;4984590;28;20042;-49
2023/12/11 04:11:32;;;;;;;0.70;0.40;;;;;;;8.98;75.52;98320.41;4972482;28;20129;-48
2023/12/11 04:13:59;;;;;;;7.72;0.50;;;;;;;8.99;75.31;98327.25;4972314;28;20047;-42
2023/12/11 04:16:26;;;;;;;3.42;1.15;;;;;;;8.94;75.75;98339.44;4971145;28;20436;-48
2023/12/11 04:18:53;;;;;;;1.23;0.85;;;;;;;8.95;75.79;98335.13;4969635;28;20054;-45
2023/12/11 04:21:24;;;;;;;1.83;0.80;;;;;;;8.90;76.22;98348.16;4970307;28;20050;-47
2023/12/11 04:23:50;;;;;;;3.90;0.77;;;;;;;8.85;76.12;98344.84;4970364;28;20054;-50
2023/12/11 04:26:17;;;;;;;3.67;0.77;;;;;;;8.96;76.13;98358.34;4969287;28;20043;-49
2023/12/11 04:28:43;;;;;;;2.08;0.52;;;;;;;8.87;77.18;98366.28;4964225;28;20478;-47
2023/12/11 04:31:10;;;;;;;2.60;0.57;;;;;;;8.95;76.19;98372.13;4966954;28;20054;-50
2023/12/11 04:33:37;;;;;;;0.50;0.50;;;;;;;8.97;75.93;98385.84;4968187;28;20054;-46
2023/12/11 04:36:07;;;;;;;1.27;0.77;;;;;;;9.00;75.80;98380.63;4970003;28;20053;-53
2023/12/11 04:38:34;;;;;;;1.00;0.43;;;;;;;9.01;75.87;98391.78;4964578;28;20515;-42
2023/12/11 04:41:00;;;;;;;2.55;0.73;;;;;;;9.02;76.15;98393.47;4967343;28;20054;-49
2023/12/11 04:43:27;;;;;;;2.50;0.88;;;;;;;9.05;76.19;98402.91;4973731;28;20053;-41
2023/12/11 04:45:57;;;;;;;3.85;1.27;;;;;;;9.07;75.67;98406.28;4964012;28;20097;-47
2023/12/11 04:48:24;;;;;;;2.17;0.88;;;;;;;9.06;76.59;98409.75;4967497;28;20101;-48
2023/12/11 04:50:51;;;;;;;3.22;0.73;;;;;;;9.05;76.31;98406.31;4969136;28;20046;-50
2023/12/11 04:53:17;;;;;;;2.28;0.40;;;;;;;8.99;76.45;98409.88;4962305;28;20507;-51
2023/12/11 04:55:44;;;;;;;3.85;0.75;;;;;;;9.07;76.02;98426.94;4968756;28;20058;-48
2023/12/11 04:58:11;;;;;;;2.28;0.73;;;;;;;9.09;76.46;98430.34;4966495;28;20466;-49
2023/12/11 05:00:38;;;;;;;2.17;0.82;;;;;;;9.04;76.50;98438.22;4969373;28;20058;-48
2023/12/11 05:03:05;;;;;;;3.50;0.55;;;;;;;9.07;75.91;98442.44;4970648;28;20070;-51
2023/12/11 05:05:31;;;;;;;2.08;1.38;;;;;;;9.09;75.97;98438.09;4970373;28;20047;-44
2023/12/11 05:07:58;;;;;;;1.33;1.13;;;;;;;9.06;76.28;98440.75;4968576;28;20047;-48
2023/12/11 05:10:25;;;;;;;1.50;0.63;;;;;;;9.06;76.45;98445.91;4968168;28;20050;-50
2023/12/11 05:12:52;;;;;;;2.65;1.52;;;;;;;9.08;76.17;98454.47;4969127;28;20394;-46
2023/12/11 05:15:18;;;;;;;2.75;0.63;;;;;;;9.07;76.12;98457.94;4967267;28;20046;-44
2023/12/11 05:17:45;;;;;;;4.68;0.90;;;;;;;9.11;76.38;98462.16;4968929;28;20050;-53
2023/12/11 05:20:12;;;;;;;1.77;0.77;;;;;;;9.08;76.69;98465.66;4967717;28;20050;-45
2023/12/11 05:22:39;;;;;;;5.07;0.90;;;;;;;9.10;76.12;98474.25;4972511;28;20500;-49
2023/12/11 05:25:06;;;;;;;3.05;0.82;;;;;;;9.12;76.28;98482.78;4967505;28;20047;-50
2023/12/11 05:27:33;;;;;;;2.28;1.27;;;;;;;9.11;76.19;98480.22;4968940;28;20110;-49
2023/12/11 05:30:00;;;;;;;1.75;0.70;;;;;;;9.11;75.96;98493.16;4968765;28;20051;-48
2023/12/11 05:32:26;;;;;;;7.85;1.17;;;;;;;9.10;76.31;98500.06;4967908;28;20047;-50
2023/12/11 05:34:53;;;;;;;1.77;0.70;;;;;;;9.11;76.24;98496.59;4969325;28;20090;-48
2023/12/11 05:37:20;;;;;;;3.45;1.00;;;;;;;9.09;76.13;98503.50;4970304;28;20050;-51
2023/12/11 05:39:47;;;;;;;4.80;0.80;;;;;;;9.11;76.14;98506.06;4967673;28;20082;-45
2023/12/11 05:42:33;;;;;;;4.97;0.75;;;;;;;9.10;76.15;98507.81;4964032;28;20105;-48
2023/12/11 05:45:00;;;;;;;5.00;0.98;;;;;;;9.09;76.50;98518.19;4983374;28;20105;-47
2023/12/11 05:47:27;;;;;;;5.82;1.13;;;;;;;9.10;76.43;98517.28;4992980;28;20082;-43
2023/12/11 05:49:54;;;;;;;5.85;1.60;;;;;;;9.07;76.10;98522.50;4993680;28;20057;-46
2023/12/11 05:52:21;;;;;;;2.88;1.25;;;;;;;9.08;76.17;98526.78;4982935;28;20046;-48
2023/12/11 05:54:47;;;;;;;2.42;0.35;;;;;;;9.09;76.36;98528.50;4987033;28;20046;-44
2023/12/11 05:57:14;;;;;;;2.30;1.23;;;;;;;9.05;76.59;98532.03;4985948;28;20054;-46
2023/12/11 05:59:41;;;;;;;5.75;0.82;;;;;;;9.08;76.06;98532.81;4983774;28;20491;-49
2023/12/11 06:02:07;;;;;;;3.25;0.80;;;;;;;9.08;76.11;98535.41;4982247;28;20054;-47
2023/12/11 06:04:36;;;;;;;3.50;0.82;;;;;;;9.07;76.11;98531.13;4988162;28;20042;-49
2023/12/11 06:07:04;;;;;;;3.63;0.93;;;;;;;9.06;76.01;98539.75;4988874;28;20042;-46
2023/12/11 06:09:31;;;;;;;7.22;0.65;;;;;;;9.04;76.09;98548.41;4983282;28;20086;-43
2023/12/11 06:11:58;;;;;;;4.40;1.05;;;;;;;9.00;76.06;98551.06;4992386;28;20057;-44
2023/12/11 06:14:24;;;;;;;7.68;1.00;;;;;;;9.02;76.41;98553.59;4991305;28;20054;-45
2023/12/11 06:16:51;;;;;;;5.03;0.43;;;;;;;9.02;75.98;98563.09;4984642;28;20129;-45
2023/12/11 06:19:18;;;;;;;2.30;0.80;;;;;;;8.93;76.10;98571.88;4990396;28;20050;-50
2023/12/11 06:21:45;;;;;;;7.10;0.98;;;;;;;8.91;76.15;98581.38;4987899;28;20055;-47
2023/12/11 06:24:12;;;;;;;6.35;1.52;;;;;;;8.87;76.11;98590.91;4988724;28;20050;-45
2023/12/11 06:26:42;;;;;;;8.70;1.23;;;;;;;8.84;75.62;98590.97;4983041;28;20047;-48
2023/12/11 06:29:09;;;;;;;3.72;0.70;;;;;;;8.78;75.55;98588.50;4989943;28;20043;-51
2023/12/11 06:31:35;;;;;;;3.97;0.95;;;;;;;8.73;75.88;98592.03;4994625;28;20053;-46
2023/12/11 06:34:03;;;;;;;7.20;1.10;;;;;;;8.70;76.24;98599.84;4993118;28;20050;-48
2023/12/11 06:36:30;;;;;;;3.80;0.60;;;;;;;8.67;75.91;98599.88;4991779;28;20531;-48
2023/12/11 06:38:57;;;;;;;5.00;0.60;;;;;;;8.65;76.46;98601.63;4994548;28;20082;-49
2023/12/11 06:41:24;;;;;;;5.18;0.80;;;;;;;8.62;75.82;98606.88;4997863;28;20045;-53
2023/12/11 06:43:53;;;;;;;2.25;0.75;;;;;;;8.58;76.18;98605.22;4987402;28;20073;-47
2023/12/11 06:46:20;;;;;;;2.85;0.95;;;;;;;8.47;75.66;98607.94;4994296;28;20046;-47
2023/12/11 06:48:47;;;;;;;2.35;0.55;;;;;;;8.46;75.85;98607.09;4994721;28;20049;-45
2023/12/11 06:51:16;;;;;;;3.40;0.60;;;;;;;8.42;75.99;98610.63;4991010;28;20050;-46
2023/12/11 06:53:43;;;;;;;9.27;0.65;;;;;;;8.36;75.84;98615.88;4991917;28;20050;-47
2023/12/11 06:56:17;;;;;;;5.38;0.90;;;;;;;8.31;76.06;98623.69;4989968;28;20570;-44
2023/12/11 06:58:45;;;;;;;4.72;1.65;;;;;;;8.33;76.78;98633.97;4992449;28;20596;-48
2023/12/11 07:01:13;;;;;;;5.53;1.40;;;;;;;8.35;76.30;98639.97;4990306;28;20054;-45
2023/12/11 07:03:40;;;;;;;2.13;0.60;;;;;;;8.35;75.71;98645.13;4985515;28;20085;-53
2023/12/11 07:06:09;;;;;;;5.35;1.13;;;;;;;8.33;76.26;98652.03;4992181;28;20150;-46
2023/12/11 07:08:36;;;;;;;5.88;1.73;;;;;;;8.31;75.91;98657.22;4997913;28;20466;-49
2023/12/11 07:11:03;;;;;;;5.20;1.08;;;;;;;8.32;75.78;98658.94;4995513;28;20046;-49
2023/12/11 07:13:30;;;;;;;3.10;0.70;;;;;;;8.27;75.60;98663.31;4997842;28;20055;-45
2023/12/11 07:15:57;;;;;;;2.17;1.40;;;;;;;8.21;75.58;98663.41;4983703;28;20046;-54
2023/12/11 07:18:24;;;;;;;1.52;0.75;;;;;;;8.13;76.39;98653.19;4992348;28;20503;-48
2023/12/11 07:20:51;;;;;;;9.00;1.20;;;;;;;8.10;76.47;98660.97;4992842;28;20092;-54
2023/12/11 07:23:17;;;;;;;3.97;1.05;;;;;;;8.01;75.90;98655.97;4991524;28;20053;-48
2023/12/11 07:25:45;;;;;;;0.98;0.93;;;;;;;7.93;76.99;98667.25;4988079;28;20046;-46
2023/12/11 07:28:12;;;;;;;8.68;1.30;;;;;;;7.92;76.91;98672.41;4997126;28;20088;-50
2023/12/11 07:30:39;;;;;;;3.28;1.10;;;;;;;7.87;76.16;98672.47;4989536;28;20050;-47
2023/12/11 07:33:06;;;;;;;3.10;0.93;;;;;;;7.81;76.44;98675.16;4989515;28;20100;-50
2023/12/11 07:35:33;;;;;;;3.83;0.90;;;;;;;7.77;76.65;98683.81;4988252;28;20125;-46
2023/12/11 07:37:59;;;;;;;5.40;1.60;;;;;;;7.78;77.26;98685.50;4994360;28;20046;-52
2023/12/11 07:40:26;;;;;;;3.17;0.63;;;;;;;7.77;77.57;98694.13;4989952;28;20046;-50
2023/12/11 07:42:53;;;;;;;3.33;0.93;;;;;;;7.78;76.80;98695.81;4990381;28;20047;-51
2023/12/11 07:45:19;;;;;;;4.47;0.98;;;;;;;7.82;77.03;98702.63;4983894;28;20042;-48
2023/12/11 07:47:46;;;;;;;4.43;1.08;;;;;;;7.79;77.92;98702.66;4977095;28;20074;-51
2023/12/11 07:50:13;;;;;;;2.28;0.68;;;;;;;7.87;77.70;98711.13;4978703;28;20515;-45
2023/12/11 07:52:41;;;;;;;3.00;0.70;;;;;;;7.88;78.06;98723.19;4979953;28;20070;-51
2023/12/11 07:55:08;;;;;;;3.83;3.45;;;;;;;7.96;77.74;98726.50;4978658;28;20569;-48
2023/12/11 07:57:34;;;;;;;1.95;0.57;;;;;;;8.01;77.59;98725.59;4970175;28;20065;-51
2023/12/11 08:00:04;;;;;;;4.95;0.82;;;;;;;8.06;78.31;98731.53;4972245;28;20046;-46
2023/12/11 08:02:30;;;;;;;5.10;1.48;;;;;;;8.09;78.43;98731.50;4974136;28;20047;-55
2023/12/11 08:04:57;;;;;;;3.78;0.88;;;;;;;8.12;78.36;98739.19;4979042;28;20054;-47
2023/12/11 08:07:24;;;;;;;1.73;0.63;;;;;;;8.13;78.21;98735.72;4980289;28;20046;-51
2023/12/11 08:09:51;;;;;;;4.47;0.75;;;;;;;8.17;78.75;98739.97;4980251;28;20059;-44
2023/12/11 08:12:18;;;;;;;3.88;0.75;;;;;;;8.22;78.72;98742.50;4979667;28;20058;-53
2023/12/11 08:14:44;;;;;;;5.10;0.90;;;;;;;8.23;78.77;98742.47;4991509;28;20046;-49
2023/12/11 08:17:11;;;;;;;2.35;0.63;;;;;;;8.27;78.38;98743.28;4981209;28;20050;-48
2023/12/11 08:19:38;;;;;;;3.65;0.73;;;;;;;8.28;78.38;98741.56;4987079;28;20055;-46
2023/12/11 08:22:05;;;;;;;2.42;0.95;;;;;;;8.30;78.26;98750.09;4975903;28;20101;-46
2023/12/11 08:24:32;;;;;;;3.45;2.17;;;;;;;8.32;78.73;98746.66;4977862;28;20403;-42
2023/12/11 08:26:58;;;;;;;1.55;0.68;;;;;;;8.30;78.95;98739.78;4979293;28;20046;-44
2023/12/11 08:29:26;;;;;;;3.38;0.75;;;;;;;8.27;78.83;98745.00;4981851;28;20063;-50
2023/12/11 08:31:52;;;;;;;1.52;0.70;;;;;;;8.23;78.89;98749.34;4978890;28;20054;-46
2023/12/11 08:34:20;;;;;;;3.40;1.98;;;;;;;8.19;78.41;98747.69;4973757;28;20418;-45
2023/12/11 08:36:47;;;;;;;1.75;0.75;;;;;;;8.09;78.96;98741.81;4980955;28;20050;-51
2023/12/11 08:39:13;;;;;;;3.28;0.60;;;;;;;8.12;78.95;98744.34;4978639;28;20054;-47
2023/12/11 08:41:40;;;;;;;3.25;0.82;;;;;;;8.16;79.42;98756.31;4975233;28;20050;-51
2023/12/11 08:44:07;;;;;;;4.63;0.85;;;;;;;8.21;79.88;98762.25;4976619;28;20046;-50
2023/12/11 08:46:34;;;;;;;3.80;0.65;;;;;;;8.31;80.04;98757.81;4981731;28;20054;-54
2023/12/11 08:49:01;;;;;;;3.92;1.20;;;;;;;8.35;79.86;98763.81;4982000;28;20050;-51
2023/12/11 08:51:28;;;;;;;5.72;1.05;;;;;;;8.40;79.08;98764.59;4988920;28;20065;-48
2023/12/11 08:53:55;;;;;;;3.13;0.55;;;;;;;8.37;79.20;98767.22;4988836;28;20125;-46
2023/12/11 08:56:23;;;;;;;2.47;0.40;;;;;;;8.65;79.37;98774.56;4982677;28;20499;-52
2023/12/11 08:58:54;;;;;;;3.30;0.52;;;;;;;8.96;78.97;98786.16;4982902;28;20142;-50
2023/12/11 09:01:21;;;;;;;3.97;0.30;;;;;;;9.19;78.74;98782.31;4985720;28;20129;-50
2023/12/11 09:03:48;;;;;;;2.88;0.55;;;;;;;9.22;78.25;98798.63;4981774;28;20495;-46
2023/12/11 09:06:15;;;;;;;2.05;0.60;;;;;;;9.29;77.68;98799.34;4983249;28;20510;-48
2023/12/11 09:08:42;;;;;;;3.25;0.60;;;;;;;9.57;77.72;98804.03;4989886;28;20054;-46
2023/12/11 09:11:08;;;;;;;0.73;0.35;;;;;;;9.75;77.71;98801.97;4980049;28;20068;-46
2023/12/11 09:13:36;;;;;;;3.28;1.15;;;;;;;9.75;76.84;98813.19;4984223;28;20159;-51
2023/12/11 09:16:03;;;;;;;1.35;0.60;;;;;;;9.82;76.95;98805.28;4982275;28;20137;-50
2023/12/11 09:18:30;;;;;;;3.58;0.93;;;;;;;10.11;77.02;98816.78;4987500;28;20502;-43
2023/12/11 09:20:57;;;;;;;1.20;0.75;;;;;;;10.10;76.71;98822.84;4984241;28;20069;-49
2023/12/11 09:23:24;;;;;;;0.70;0.55;;;;;;;10.09;76.44;98831.47;4980401;28;20049;-48
2023/12/11 09:25:51;;;;;;;3.22;0.73;;;;;;;10.12;75.63;98821.94;4989173;28;20053;-51
2023/12/11 09:28:18;;;;;;;2.00;1.67;;;;;;;10.62;76.85;98827.81;4992854;28;20419;-47
2023/12/11 09:30:45;;;;;;;0.75;0.65;;;;;;;10.71;75.28;98832.78;4987732;28;20053;-45
2023/12/11 09:33:12;;;;;;;2.60;0.60;;;;;;;10.87;76.27;98835.00;4980753;28;20137;-41
2023/12/11 09:35:40;;;;;;;2.92;0.98;;;;;;;11.67;75.40;98834.75;4972996;28;20054;-42
2023/12/11 09:38:07;;;;;;;3.53;0.93;;;;;;;12.38;74.50;98843.22;4985391;28;20046;-47
2023/12/11 09:40:35;;;;;;;1.92;0.52;;;;;;;12.87;73.81;98846.06;4985113;28;20062;-54
2023/12/11 09:43:02;;;;;;;1.85;0.70;;;;;;;13.09;72.24;98846.25;4984351;28;20116;-43
2023/12/11 09:45:30;;;;;;;1.25;0.70;;;;;;;13.21;71.17;98846.72;4984540;28;20045;-44
2023/12/11 09:47:58;;;;;;;1.95;0.80;;;;;;;13.32;71.50;98855.03;4987147;28;20061;-46
2023/12/11 09:50:39;;;;;;;1.10;0.68;;;;;;;13.98;71.34;98856.25;4989304;28;20074;-52
2023/12/11 09:53:08;;;;;;;2.60;0.80;;;;;;;14.41;69.92;98847.78;4992800;28;20123;-53
2023/12/11 09:55:35;;;;;;;4.18;1.27;;;;;;;14.35;68.11;98854.06;4986104;28;20597;-44
2023/12/11 09:58:03;;;;;;;1.42;0.60;;;;;;;14.54;68.73;98863.78;4988528;28;20058;-45
2023/12/11 10:00:30;;;;;;;1.52;1.33;;;;;;;14.74;67.60;98859.56;4983608;28;20062;-47
2023/12/11 10:03:00;;;;;;;3.25;2.75;;;;;;;14.92;66.94;98863.22;4985838;28;20416;-48
2023/12/11 10:05:27;;;;;;;3.60;0.82;;;;;;;14.95;65.38;98867.47;4991068;28;20070;-50
2023/12/11 10:07:54;;;;;;;2.83;0.82;;;;;;;15.27;65.49;98870.56;4992049;28;20050;-47
2023/12/11 10:10:26;;;;;;;3.10;0.88;;;;;;;15.57;64.29;98879.78;4983308;28;20050;-47
2023/12/11 10:12:54;;;;;;;3.40;0.60;;;;;;;15.82;63.41;98884.78;4990275;28;20456;-45
2023/12/11 10:15:26;;;;;;;1.60;0.70;;;;;;;15.80;62.20;98886.59;4988406;28;20042;-47
2023/12/11 10:20:38;;;;;;;3.28;2.10;;;;;;;15.50;62.02;98889.63;5025985;28;20965;-44
2023/12/11 10:23:21;;;;;;;3.15;1.35;;;;;;;15.56;62.34;98889.34;5004422;28;20458;-48
2023/12/11 10:25:52;;;;;;;3.17;2.88;;;;;;;15.20;61.31;98893.41;5021074;28;20057;-47
2023/12/11 10:28:22;;;;;;;2.63;1.88;;;;;;;14.84;61.65;98900.03;5020739;28;20188;-52
2023/12/11 10:30:59;;;;;;;4.70;1.92;;;;;;;14.45;62.23;98891.03;5022248;28;20137;-49
2023/12/11 10:33:30;;;;;;;2.97;2.67;;;;;;;14.42;62.29;98903.34;5016324;28;20116;-47
2023/12/11 10:36:12;;;;;;;1.75;1.60;;;;;;;14.20;62.63;98901.50;5029659;28;20053;-54
2023/12/11 10:38:39;;;;;;;1.95;1.58;;;;;;;14.01;63.14;98920.38;4999398;28;20069;-49
2023/12/11 10:41:06;;;;;;;2.10;1.70;;;;;;;13.82;63.83;98922.78;5019824;28;20049;-49
2023/12/11 10:43:42;;;;;;;6.97;1.98;;;;;;;13.43;64.07;98924.88;5010240;28;20136;-46
2023/12/11 10:46:11;;;;;;;4.38;1.48;;;;;;;13.11;65.09;98937.19;5012954;28;20053;-48
2023/12/11 10:48:38;;;;;;;2.58;1.63;;;;;;;12.90;65.63;98938.69;5019038;28;20116;-45
2023/12/11 10:51:05;;;;;;;2.67;1.83;;;;;;;12.72;65.63;98943.53;5019242;28;20046;-49
2023/12/11 10:53:33;;;;;;;2.75;1.67;;;;;;;12.67;66.97;98930.66;5012161;28;20054;-45
2023/12/11 10:56:01;;;;;;;4.65;2.00;;;;;;;12.57;66.96;98937.03;5033951;28;20049;-49
2023/12/11 10:58:28;;;;;;;2.28;2.05;;;;;;;12.37;66.53;98937.59;5018645;28;20057;-45
2023/12/11 11:00:59;;;;;;;2.10;1.55;;;;;;;12.16;67.82;98942.50;5019369;28;20141;-45
2023/12/11 11:03:29;;;;;;;1.83;0.50;;;;;;;11.87;66.93;98937.16;5016298;28;20591;-51
2023/12/11 11:05:57;;;;;;;3.83;0.77;;;;;;;11.94;67.76;98948.22;5017592;28;20300;-48
2023/12/11 11:16:56;;;;;;;4.03;2.35;;;;;;;11.57;68.81;98948.25;5042701;28;20402;-45
2023/12/11 11:19:25;;;;;;;1.48;1.38;;;;;;;11.52;68.63;98954.44;5022012;28;20049;-52
2023/12/11 11:24:37;;;;;;;1.45;0.68;;;;;;;11.42;69.46;98946.03;5070222;27;20391;-45
2023/12/11 11:27:41;;;;;;;1.45;0.90;;;;;;;11.27;69.68;98953.28;5017629;28;20048;-48
2023/12/11 11:30:08;;;;;;;1.35;0.60;;;;;;;11.24;69.11;98942.13;5019143;28;20053;-47
2023/12/11 11:32:54;;;;;;;1.15;0.55;;;;;;;11.15;70.16;98953.56;5010965;28;20053;-53
2023/12/11 11:35:49;;;;;;;1.55;0.43;;;;;;;10.93;70.07;98943.69;5017491;28;20073;-52
2023/12/11 11:38:18;;;;;;;1.42;0.63;;;;;;;10.79;70.19;98942.25;5024149;28;20411;-47
2023/12/11 11:40:45;;;;;;;1.52;0.65;;;;;;;10.78;70.22;98945.72;5013186;28;20054;-50
2023/12/11 11:43:13;;;;;;;1.27;0.80;;;;;;;10.74;69.98;98944.06;5050812;28;20046;-45
2023/12/11 11:45:40;;;;;;;0.75;0.50;;;;;;;10.75;70.33;98950.97;5022883;28;20518;-47
2023/12/11 11:48:07;;;;;;;0.75;0.50;;;;;;;10.74;70.43;98969.97;5017288;28;20133;-51
2023/12/11 11:50:35;;;;;;;2.75;0.60;;;;;;;10.74;71.54;98953.59;5021475;28;20045;-46
2023/12/11 11:53:08;;;;;;;1.70;0.75;;;;;;;10.72;71.04;98970.91;5022537;28;20050;-47
2023/12/11 11:55:38;;;;;;;3.45;1.02;;;;;;;10.59;70.19;98980.63;5033041;28;20077;-47
2023/12/11 11:58:13;;;;;;;1.95;0.60;;;;;;;10.56;70.55;98980.69;5019655;28;20049;-47